sensor_id;sensor_type;location;lat;lon;timestamp;P1;durP1;ratioP1;P2;durP2;ratioP2
15234;SDS011;7720;51.926;4.488;2023-06-10T03:08:27;8.60;;;7.55;;
15234;SDS011;7720;51.926;4.488;2023-06-10T03:13:34;8.60;;;7.15;;
15234;SDS011;7720;51.926;4.488;2023-06-10T03:18:38;9.02;;;6.82;;
15234;SDS011;7720;51.926;4.488;2023-06-10T03:23:44;10.18;;;7.10;;
15234;SDS011;7720;51.926;4.488;2023-06-10T03:28:47;8.27;;;7.00;;
15234;SDS011;7720;51.926;4.488;2023-06-10T03:33:52;9.93;;;6.43;;
15234;SDS011;7720;51.926;4.488;2023-06-10T03:38:57;7.32;;;6.55;;
15234;SDS011;7720;51.926;4.488;2023-06-10T03:44:02;9.00;;;6.80;;
15234;SDS011;7720;51.926;4.488;2023-06-10T03:49:06;10.30;;;6.45;;
15234;SDS011;7720;51.926;4.488;2023-06-10T03:54:12;7.00;;;5.97;;
15234;SDS011;7720;51.926;4.488;2023-06-10T03:59:16;7.72;;;5.90;;
15234;SDS011;7720;51.926;4.488;2023-06-10T04:04:19;8.95;;;6.10;;
15234;SDS011;7720;51.926;4.488;2023-06-10T04:09:24;9.40;;;5.93;;
15234;SDS011;7720;51.926;4.488;2023-06-10T04:14:27;10.35;;;5.90;;
15234;SDS011;7720;51.926;4.488;2023-06-10T04:19:31;9.23;;;5.82;;
15234;SDS011;7720;51.926;4.488;2023-06-10T04:24:37;12.25;;;6.00;;
15234;SDS011;7720;51.926;4.488;2023-06-10T04:29:40;8.38;;;5.13;;
15234;SDS011;7720;51.926;4.488;2023-06-10T04:34:44;7.53;;;5.55;;
15234;SDS011;7720;51.926;4.488;2023-06-10T04:39:53;10.02;;;5.70;;
15234;SDS011;7720;51.926;4.488;2023-06-10T04:44:57;7.03;;;5.45;;
15234;SDS011;7720;51.926;4.488;2023-06-10T04:50:02;7.78;;;5.90;;
15234;SDS011;7720;51.926;4.488;2023-06-10T04:55:08;7.97;;;5.90;;
15234;SDS011;7720;51.926;4.488;2023-06-10T05:00:13;7.28;;;5.90;;
15234;SDS011;7720;51.926;4.488;2023-06-10T05:05:17;7.30;;;5.45;;
15234;SDS011;7720;51.926;4.488;2023-06-10T05:10:22;6.47;;;5.47;;
15234;SDS011;7720;51.926;4.488;2023-06-10T05:15:25;7.82;;;5.68;;
15234;SDS011;7720;51.926;4.488;2023-06-10T05:20:29;7.20;;;5.35;;
15234;SDS011;7720;51.926;4.488;2023-06-10T05:25:34;7.68;;;5.53;;
15234;SDS011;7720;51.926;4.488;2023-06-10T05:30:37;7.95;;;5.93;;
15234;SDS011;7720;51.926;4.488;2023-06-10T05:35:41;8.60;;;5.70;;
15234;SDS011;7720;51.926;4.488;2023-06-10T05:40:46;8.32;;;5.55;;
15234;SDS011;7720;51.926;4.488;2023-06-10T05:45:49;11.40;;;5.75;;
15234;SDS011;7720;51.926;4.488;2023-06-10T05:50:53;6.78;;;5.97;;
15234;SDS011;7720;51.926;4.488;2023-06-10T05:55:58;6.82;;;5.55;;
15234;SDS011;7720;51.926;4.488;2023-06-10T06:01:01;8.13;;;5.70;;
15234;SDS011;7720;51.926;4.488;2023-06-10T06:06:05;8.18;;;6.28;;
15234;SDS011;7720;51.926;4.488;2023-06-10T06:11:10;8.93;;;6.28;;
15234;SDS011;7720;51.926;4.488;2023-06-10T06:16:13;10.38;;;6.20;;
15234;SDS011;7720;51.926;4.488;2023-06-10T06:21:17;8.13;;;6.20;;
15234;SDS011;7720;51.926;4.488;2023-06-10T06:26:21;8.48;;;6.00;;
15234;SDS011;7720;51.926;4.488;2023-06-10T06:31:25;7.85;;;6.60;;
15234;SDS011;7720;51.926;4.488;2023-06-10T06:36:29;9.43;;;5.85;;
15234;SDS011;7720;51.926;4.488;2023-06-10T06:41:34;6.70;;;5.97;;
15234;SDS011;7720;51.926;4.488;2023-06-10T06:46:37;9.88;;;6.43;;
15234;SDS011;7720;51.926;4.488;2023-06-10T06:51:41;8.80;;;6.25;;
15234;SDS011;7720;51.926;4.488;2023-06-10T06:56:45;11.30;;;6.80;;
15234;SDS011;7720;51.926;4.488;2023-06-10T07:01:49;7.68;;;6.10;;
15234;SDS011;7720;51.926;4.488;2023-06-10T07:06:52;11.70;;;6.57;;
15234;SDS011;7720;51.926;4.488;2023-06-10T07:11:57;8.88;;;6.30;;
15234;SDS011;7720;51.926;4.488;2023-06-10T07:17:00;7.70;;;5.53;;
15234;SDS011;7720;51.926;4.488;2023-06-10T07:22:04;9.50;;;6.55;;
15234;SDS011;7720;51.926;4.488;2023-06-10T07:27:09;8.55;;;6.35;;
15234;SDS011;7720;51.926;4.488;2023-06-10T07:32:13;9.38;;;6.00;;
15234;SDS011;7720;51.926;4.488;2023-06-10T07:37:19;9.02;;;6.22;;
15234;SDS011;7720;51.926;4.488;2023-06-10T07:42:24;7.38;;;5.72;;
15234;SDS011;7720;51.926;4.488;2023-06-10T07:47:27;7.95;;;5.88;;
15234;SDS011;7720;51.926;4.488;2023-06-10T07:52:32;15.23;;;12.70;;
15234;SDS011;7720;51.926;4.488;2023-06-10T07:57:36;7.65;;;6.72;;
15234;SDS011;7720;51.926;4.488;2023-06-10T08:02:40;7.22;;;5.60;;
15234;SDS011;7720;51.926;4.488;2023-06-10T08:07:44;8.20;;;5.88;;
15234;SDS011;7720;51.926;4.488;2023-06-10T08:12:49;6.20;;;5.60;;
15234;SDS011;7720;51.926;4.488;2023-06-10T08:17:52;8.02;;;5.70;;
15234;SDS011;7720;51.926;4.488;2023-06-10T08:22:56;7.00;;;5.40;;
15234;SDS011;7720;51.926;4.488;2023-06-10T08:28:00;6.30;;;5.70;;
15234;SDS011;7720;51.926;4.488;2023-06-10T08:33:03;7.45;;;5.43;;
15234;SDS011;7720;51.926;4.488;2023-06-10T08:38:07;8.27;;;5.50;;
15234;SDS011;7720;51.926;4.488;2023-06-10T08:43:15;6.93;;;5.20;;
15234;SDS011;7720;51.926;4.488;2023-06-10T08:48:22;6.97;;;5.60;;
15234;SDS011;7720;51.926;4.488;2023-06-10T08:53:27;8.73;;;5.35;;
15234;SDS011;7720;51.926;4.488;2023-06-10T08:58:36;7.93;;;5.45;;
15234;SDS011;7720;51.926;4.488;2023-06-10T09:03:43;7.60;;;5.15;;
15234;SDS011;7720;51.926;4.488;2023-06-10T09:08:47;6.18;;;5.20;;
15234;SDS011;7720;51.926;4.488;2023-06-10T09:13:52;6.32;;;5.20;;
15234;SDS011;7720;51.926;4.488;2023-06-10T09:18:55;6.43;;;5.25;;
15234;SDS011;7720;51.926;4.488;2023-06-10T09:23:58;6.22;;;5.40;;
15234;SDS011;7720;51.926;4.488;2023-06-10T09:29:04;9.25;;;5.65;;
15234;SDS011;7720;51.926;4.488;2023-06-10T09:34:08;6.95;;;4.82;;
15234;SDS011;7720;51.926;4.488;2023-06-10T09:39:13;7.18;;;4.68;;
15234;SDS011;7720;51.926;4.488;2023-06-10T09:44:20;5.60;;;5.10;;
15234;SDS011;7720;51.926;4.488;2023-06-10T09:49:26;6.75;;;5.35;;
15234;SDS011;7720;51.926;4.488;2023-06-10T09:54:31;5.85;;;5.20;;
15234;SDS011;7720;51.926;4.488;2023-06-10T09:59:36;7.53;;;5.50;;
15234;SDS011;7720;51.926;4.488;2023-06-10T10:04:40;6.10;;;4.88;;
15234;SDS011;7720;51.926;4.488;2023-06-10T10:09:44;6.03;;;4.80;;
15234;SDS011;7720;51.926;4.488;2023-06-10T10:14:49;5.63;;;4.97;;
15234;SDS011;7720;51.926;4.488;2023-06-10T10:19:53;6.15;;;4.70;;
15234;SDS011;7720;51.926;4.488;2023-06-10T10:25:05;5.65;;;4.78;;
15234;SDS011;7720;51.926;4.488;2023-06-10T10:30:14;6.82;;;4.78;;
15234;SDS011;7720;51.926;4.488;2023-06-10T10:35:23;7.55;;;5.35;;
15234;SDS011;7720;51.926;4.488;2023-06-10T10:40:27;5.82;;;4.90;;
15234;SDS011;7720;51.926;4.488;2023-06-10T10:45:35;6.30;;;5.00;;
15234;SDS011;7720;51.926;4.488;2023-06-10T10:50:38;6.00;;;4.75;;
15234;SDS011;7720;51.926;4.488;2023-06-10T10:55:42;6.28;;;5.07;;
15234;SDS011;7720;51.926;4.488;2023-06-10T11:01:10;6.18;;;4.88;;
15234;SDS011;7720;51.926;4.488;2023-06-10T11:06:15;5.85;;;4.90;;
15234;SDS011;7720;51.926;4.488;2023-06-10T11:11:21;5.53;;;4.70;;
15234;SDS011;7720;51.926;4.488;2023-06-10T11:16:28;5.65;;;4.95;;
15234;SDS011;7720;51.926;4.488;2023-06-10T11:21:32;5.97;;;5.38;;
15234;SDS011;7720;51.926;4.488;2023-06-10T11:27:15;5.55;;;5.00;;
15234;SDS011;7720;51.926;4.488;2023-06-10T11:32:21;6.20;;;5.53;;
15234;SDS011;7720;51.926;4.488;2023-06-10T11:37:25;8.63;;;5.40;;
15234;SDS011;7720;51.926;4.488;2023-06-10T11:42:30;5.82;;;5.20;;
15234;SDS011;7720;51.926;4.488;2023-06-10T11:47:35;5.78;;;5.15;;
15234;SDS011;7720;51.926;4.488;2023-06-10T11:52:38;4.65;;;4.15;;
15234;SDS011;7720;51.926;4.488;2023-06-10T11:57:42;5.43;;;4.57;;
15234;SDS011;7720;51.926;4.488;2023-06-10T12:02:47;7.40;;;5.38;;
15234;SDS011;7720;51.926;4.488;2023-06-10T12:08:07;5.68;;;4.53;;
15234;SDS011;7720;51.926;4.488;2023-06-10T12:13:11;5.38;;;4.85;;
15234;SDS011;7720;51.926;4.488;2023-06-10T12:18:19;5.40;;;4.90;;
15234;SDS011;7720;51.926;4.488;2023-06-10T12:23:23;5.65;;;4.93;;
15234;SDS011;7720;51.926;4.488;2023-06-10T12:28:26;6.00;;;4.95;;
15234;SDS011;7720;51.926;4.488;2023-06-10T12:33:31;5.45;;;4.38;;
15234;SDS011;7720;51.926;4.488;2023-06-10T12:38:34;6.18;;;4.72;;
15234;SDS011;7720;51.926;4.488;2023-06-10T12:43:39;5.32;;;4.82;;
15234;SDS011;7720;51.926;4.488;2023-06-10T12:48:50;6.10;;;4.75;;
15234;SDS011;7720;51.926;4.488;2023-06-10T12:53:55;5.10;;;4.47;;
15234;SDS011;7720;51.926;4.488;2023-06-10T12:58:59;5.60;;;4.90;;
15234;SDS011;7720;51.926;4.488;2023-06-10T13:04:05;7.18;;;4.88;;
15234;SDS011;7720;51.926;4.488;2023-06-10T13:09:09;4.93;;;4.43;;
15234;SDS011;7720;51.926;4.488;2023-06-10T13:14:12;5.72;;;4.60;;
15234;SDS011;7720;51.926;4.488;2023-06-10T13:19:17;5.47;;;4.65;;
15234;SDS011;7720;51.926;4.488;2023-06-10T13:24:23;5.97;;;4.97;;
15234;SDS011;7720;51.926;4.488;2023-06-10T13:29:26;5.55;;;5.05;;
15234;SDS011;7720;51.926;4.488;2023-06-10T13:34:31;6.93;;;4.60;;
15234;SDS011;7720;51.926;4.488;2023-06-10T13:39:34;5.00;;;4.60;;
15234;SDS011;7720;51.926;4.488;2023-06-10T13:44:37;7.63;;;4.75;;
15234;SDS011;7720;51.926;4.488;2023-06-10T13:49:42;5.47;;;4.82;;
15234;SDS011;7720;51.926;4.488;2023-06-10T13:54:45;6.65;;;4.68;;
15234;SDS011;7720;51.926;4.488;2023-06-10T13:59:49;4.90;;;4.50;;
15234;SDS011;7720;51.926;4.488;2023-06-10T14:04:53;5.90;;;4.60;;
15234;SDS011;7720;51.926;4.488;2023-06-10T14:09:57;4.88;;;4.13;;
15234;SDS011;7720;51.926;4.488;2023-06-10T14:15:00;6.70;;;4.60;;
15234;SDS011;7720;51.926;4.488;2023-06-10T14:20:06;6.97;;;4.70;;
15234;SDS011;7720;51.926;4.488;2023-06-10T14:25:10;5.18;;;4.53;;
15234;SDS011;7720;51.926;4.488;2023-06-10T14:30:14;5.20;;;4.63;;
15234;SDS011;7720;51.926;4.488;2023-06-10T14:35:19;5.53;;;4.07;;
15234;SDS011;7720;51.926;4.488;2023-06-10T14:40:23;6.43;;;4.60;;
15234;SDS011;7720;51.926;4.488;2023-06-10T14:45:27;6.72;;;5.00;;
15234;SDS011;7720;51.926;4.488;2023-06-10T14:50:32;8.15;;;4.88;;
15234;SDS011;7720;51.926;4.488;2023-06-10T14:55:37;6.13;;;4.75;;
15234;SDS011;7720;51.926;4.488;2023-06-10T15:00:40;5.22;;;4.60;;
15234;SDS011;7720;51.926;4.488;2023-06-10T15:05:45;5.07;;;4.57;;
15234;SDS011;7720;51.926;4.488;2023-06-10T15:10:48;4.55;;;4.15;;
15234;SDS011;7720;51.926;4.488;2023-06-10T15:15:51;5.80;;;4.57;;
15234;SDS011;7720;51.926;4.488;2023-06-10T15:20:56;7.60;;;4.88;;
15234;SDS011;7720;51.926;4.488;2023-06-10T15:25:59;6.40;;;4.60;;
15234;SDS011;7720;51.926;4.488;2023-06-10T15:31:03;6.45;;;4.70;;
15234;SDS011;7720;51.926;4.488;2023-06-10T15:36:07;8.88;;;5.15;;
15234;SDS011;7720;51.926;4.488;2023-06-10T15:41:11;5.68;;;4.53;;
15234;SDS011;7720;51.926;4.488;2023-06-10T15:46:14;5.78;;;4.40;;
15234;SDS011;7720;51.926;4.488;2023-06-10T15:51:19;5.97;;;4.75;;
15234;SDS011;7720;51.926;4.488;2023-06-10T15:56:22;5.20;;;4.68;;
15234;SDS011;7720;51.926;4.488;2023-06-10T16:01:28;4.78;;;4.32;;
15234;SDS011;7720;51.926;4.488;2023-06-10T16:06:32;4.68;;;4.28;;
15234;SDS011;7720;51.926;4.488;2023-06-10T16:11:37;6.50;;;4.50;;
15234;SDS011;7720;51.926;4.488;2023-06-10T16:16:41;6.18;;;4.50;;
15234;SDS011;7720;51.926;4.488;2023-06-10T16:21:45;5.88;;;4.38;;
15234;SDS011;7720;51.926;4.488;2023-06-10T16:26:49;8.65;;;4.70;;
15234;SDS011;7720;51.926;4.488;2023-06-10T16:31:52;7.68;;;5.05;;
15234;SDS011;7720;51.926;4.488;2023-06-10T16:36:57;7.93;;;5.30;;
15234;SDS011;7720;51.926;4.488;2023-06-10T16:42:00;5.78;;;4.68;;
15234;SDS011;7720;51.926;4.488;2023-06-10T16:47:04;7.75;;;4.53;;
15234;SDS011;7720;51.926;4.488;2023-06-10T16:52:11;10.57;;;4.40;;
15234;SDS011;7720;51.926;4.488;2023-06-10T16:57:15;7.15;;;4.28;;
15234;SDS011;7720;51.926;4.488;2023-06-10T17:02:18;4.85;;;4.18;;
15234;SDS011;7720;51.926;4.488;2023-06-10T17:07:24;6.30;;;4.30;;
15234;SDS011;7720;51.926;4.488;2023-06-10T17:12:27;6.57;;;4.38;;
15234;SDS011;7720;51.926;4.488;2023-06-10T17:17:30;7.38;;;4.50;;
15234;SDS011;7720;51.926;4.488;2023-06-10T17:22:36;6.00;;;4.18;;
15234;SDS011;7720;51.926;4.488;2023-06-10T17:27:39;7.70;;;4.28;;
15234;SDS011;7720;51.926;4.488;2023-06-10T17:32:42;9.68;;;4.10;;
15234;SDS011;7720;51.926;4.488;2023-06-10T17:37:47;7.22;;;4.32;;
15234;SDS011;7720;51.926;4.488;2023-06-10T17:42:51;4.75;;;3.67;;
15234;SDS011;7720;51.926;4.488;2023-06-10T17:47:54;7.82;;;4.10;;
15234;SDS011;7720;51.926;4.488;2023-06-10T17:52:59;7.95;;;4.78;;
15234;SDS011;7720;51.926;4.488;2023-06-10T17:58:02;9.07;;;4.05;;
15234;SDS011;7720;51.926;4.488;2023-06-10T18:03:06;7.30;;;4.07;;
15234;SDS011;7720;51.926;4.488;2023-06-10T18:08:10;7.60;;;4.22;;
15234;SDS011;7720;51.926;4.488;2023-06-10T18:13:14;8.27;;;4.18;;
15234;SDS011;7720;51.926;4.488;2023-06-10T18:18:17;7.82;;;4.10;;
15234;SDS011;7720;51.926;4.488;2023-06-10T18:23:22;7.43;;;4.30;;
15234;SDS011;7720;51.926;4.488;2023-06-10T18:28:26;9.27;;;4.18;;
15234;SDS011;7720;51.926;4.488;2023-06-10T18:33:31;9.40;;;3.88;;
15234;SDS011;7720;51.926;4.488;2023-06-10T18:38:36;9.48;;;5.05;;
15234;SDS011;7720;51.926;4.488;2023-06-10T18:43:40;8.68;;;4.68;;
15234;SDS011;7720;51.926;4.488;2023-06-10T18:48:43;7.90;;;4.03;;
15234;SDS011;7720;51.926;4.488;2023-06-10T18:53:50;5.95;;;4.20;;
15234;SDS011;7720;51.926;4.488;2023-06-10T18:58:53;11.70;;;4.65;;
15234;SDS011;7720;51.926;4.488;2023-06-10T19:03:56;10.48;;;4.55;;
15234;SDS011;7720;51.926;4.488;2023-06-10T19:09:02;13.38;;;4.70;;
15234;SDS011;7720;51.926;4.488;2023-06-10T19:14:06;7.47;;;4.38;;
15234;SDS011;7720;51.926;4.488;2023-06-10T19:19:09;8.18;;;4.13;;
15234;SDS011;7720;51.926;4.488;2023-06-10T19:24:14;9.57;;;4.10;;
15234;SDS011;7720;51.926;4.488;2023-06-10T19:29:17;5.57;;;3.72;;
15234;SDS011;7720;51.926;4.488;2023-06-10T19:34:21;6.95;;;3.47;;
15234;SDS011;7720;51.926;4.488;2023-06-10T19:39:25;4.07;;;3.65;;
15234;SDS011;7720;51.926;4.488;2023-06-10T19:44:29;6.60;;;3.60;;
15234;SDS011;7720;51.926;4.488;2023-06-10T19:49:32;5.78;;;3.65;;
15234;SDS011;7720;51.926;4.488;2023-06-10T19:54:37;10.57;;;3.85;;
15234;SDS011;7720;51.926;4.488;2023-06-10T19:59:40;5.05;;;3.80;;
15234;SDS011;7720;51.926;4.488;2023-06-10T20:04:43;6.88;;;3.63;;
15234;SDS011;7720;51.926;4.488;2023-06-10T20:09:48;5.85;;;3.50;;
15234;SDS011;7720;51.926;4.488;2023-06-10T20:14:51;4.65;;;3.60;;
15234;SDS011;7720;51.926;4.488;2023-06-10T20:19:54;7.10;;;4.20;;
15234;SDS011;7720;51.926;4.488;2023-06-10T20:24:59;5.57;;;3.80;;
15234;SDS011;7720;51.926;4.488;2023-06-10T20:30:03;5.47;;;4.30;;
15234;SDS011;7720;51.926;4.488;2023-06-10T20:35:07;4.43;;;3.55;;
15234;SDS011;7720;51.926;4.488;2023-06-10T20:40:13;5.00;;;3.90;;
15234;SDS011;7720;51.926;4.488;2023-06-10T20:45:16;6.72;;;4.20;;
15234;SDS011;7720;51.926;4.488;2023-06-10T20:50:20;4.57;;;3.90;;
15234;SDS011;7720;51.926;4.488;2023-06-10T20:55:26;5.28;;;3.95;;
15234;SDS011;7720;51.926;4.488;2023-06-10T21:00:29;5.13;;;3.53;;
15234;SDS011;7720;51.926;4.488;2023-06-10T21:05:33;5.50;;;4.07;;
15234;SDS011;7720;51.926;4.488;2023-06-10T21:10:37;7.75;;;4.22;;
15234;SDS011;7720;51.926;4.488;2023-06-10T21:15:41;6.15;;;3.80;;
15234;SDS011;7720;51.926;4.488;2023-06-10T21:20:44;7.15;;;4.70;;
15234;SDS011;7720;51.926;4.488;2023-06-10T21:25:49;6.40;;;4.25;;
15234;SDS011;7720;51.926;4.488;2023-06-10T21:30:52;7.40;;;4.47;;
15234;SDS011;7720;51.926;4.488;2023-06-10T21:35:56;7.63;;;4.75;;
15234;SDS011;7720;51.926;4.488;2023-06-10T21:41:01;7.60;;;5.00;;
15234;SDS011;7720;51.926;4.488;2023-06-10T21:46:04;5.45;;;3.88;;
15234;SDS011;7720;51.926;4.488;2023-06-10T21:51:08;6.25;;;4.10;;
15234;SDS011;7720;51.926;4.488;2023-06-10T21:56:12;5.85;;;4.20;;
15234;SDS011;7720;51.926;4.488;2023-06-10T22:01:16;5.68;;;4.18;;
15234;SDS011;7720;51.926;4.488;2023-06-10T22:06:19;7.45;;;4.10;;
15234;SDS011;7720;51.926;4.488;2023-06-10T22:11:24;6.07;;;3.78;;
15234;SDS011;7720;51.926;4.488;2023-06-10T22:16:28;4.45;;;3.70;;
15234;SDS011;7720;51.926;4.488;2023-06-10T22:21:31;6.13;;;3.85;;
15234;SDS011;7720;51.926;4.488;2023-06-10T22:26:36;4.93;;;4.05;;
15234;SDS011;7720;51.926;4.488;2023-06-10T22:31:53;6.60;;;4.25;;
15234;SDS011;7720;51.926;4.488;2023-06-10T22:36:57;5.25;;;4.30;;
15234;SDS011;7720;51.926;4.488;2023-06-10T22:42:02;5.07;;;4.35;;
15234;SDS011;7720;51.926;4.488;2023-06-10T22:47:10;5.90;;;4.55;;
15234;SDS011;7720;51.926;4.488;2023-06-10T22:52:13;7.10;;;4.90;;
15234;SDS011;7720;51.926;4.488;2023-06-10T22:57:18;8.73;;;4.72;;
15234;SDS011;7720;51.926;4.488;2023-06-10T23:02:21;5.25;;;4.60;;
15234;SDS011;7720;51.926;4.488;2023-06-10T23:07:24;6.60;;;5.05;;
15234;SDS011;7720;51.926;4.488;2023-06-10T23:12:29;6.85;;;4.95;;
15234;SDS011;7720;51.926;4.488;2023-06-10T23:17:33;9.50;;;4.60;;
15234;SDS011;7720;51.926;4.488;2023-06-10T23:22:36;5.88;;;4.57;;
15234;SDS011;7720;51.926;4.488;2023-06-10T23:27:42;7.78;;;4.72;;
15234;SDS011;7720;51.926;4.488;2023-06-10T23:32:46;9.15;;;4.85;;
15234;SDS011;7720;51.926;4.488;2023-06-10T23:37:49;8.07;;;4.88;;
15234;SDS011;7720;51.926;4.488;2023-06-10T23:42:54;5.40;;;4.80;;
15234;SDS011;7720;51.926;4.488;2023-06-10T23:47:57;6.80;;;5.10;;
15234;SDS011;7720;51.926;4.488;2023-06-10T23:53:01;7.30;;;4.70;;
15234;SDS011;7720;51.926;4.488;2023-06-10T23:58:06;7.65;;;5.35;;
